Capena, Italy

4:10 PM CET on December 08, 2016 (GMT +0100)
Capena | | Change Station

Elev 266 ft 42.12 °N, 12.55 °E | Updated 33 seconds ago

Clear
Clear
55.9 °F
Feels Like 55.9 °F
N
0.0
Wind Variable Wind from SE
Gusts 0.0 mph

Today
High -- | Low -- °F
--% Chance of Precip.
Yesterday
High -- | Low -- °F
Precip. -- in
Pressure 30.54 in
Visibility -9999.0 miles
Clouds
Dew Point 40 °F
Humidity 54%
Rainfall 0.00 in
Snow Depth Not available.
7:25 AM 4:37 PM
Waxing Gibbous, 64% visible
METAR LIRU 081450Z 00000KT CAVOK 15/05 Q1034
Pressure 30.54 in
Visibility -9999.0 miles
Clouds
Dew Point 40 °F
Humidity 54%
Rainfall 0.00 in
Snow Depth Not available.
7:25 AM 4:37 PM
Waxing Gibbous, 64% visible
METAR LIRU 081450Z 00000KT CAVOK 15/05 Q1034

10-Day Weather Forecast

×

Almanac

Astronomy

Dec. 08, 2016 Rise Set
Actual Time
Civil Twilight
Nautical Twilight
Astronomical Twilight
Moon
Length of Visible Light
Length of Day
Tomorrow will be .
, % of the Moon is Illuminated

Today's Extremes

Country Highs Country Lows

Community

WunderPhotos

Upload Photos

1,956,268 photos uploaded!

WunderBlog® & News

Nearby

Air Quality

  Air Quality AQ Index Pollutant
Not available.

Snow Depth

Station Depth Elevation

Earthquake Activity

City Distance Mag. Time & Date
Minimum magnitude displayed is 2.5.

Coastal Water Temperatures

Place Temperature

Stations

Nearby Weather Stations

Station Location Temp. Windchill Dew Point Humidity Wind Precip. Elev Updated Type